Halifax, United Kingdom
Current Conditions -  °F | °C
As of 1:50 AM on Tuesday 21 Oct 2014 (Local Time) from EGNM Reporting Station
Broken Clouds Broken Clouds  
Wind Chill: 52°   Ceiling: 1500
Heat Index: 52°   Visibility: 6mi
Dew Point: 48°   Wind: 17mph
Humidity: 88%   Direction: 220°SW
Pressure: 29.53"   Gusts: 29mph
Location:  53.72°N, 1.86°W
Report Text: EGNM 210050Z 22015G25KT 9999 BKN015 11/09 Q1000
Loading
Personal Weather Stations






























Interactive Weather Map
Tropical Storm Tracking
New forecast layout! Learn more

10-Day Weather Forecast

Advertisements
Track Severe Weather on mobile